Time;durP1;ratioP1;P1;durP2;ratioP2;P2;SDS_P1;SDS_P2;PMS_P1;PMS_P2;Temp;Humidity;BMP_temperature;BMP_pressure;BME280_temperature;BME280_humidity;BME280_pressure;Samples;Min_cycle;Max_cycle;Signal;HPM_P1;HPM_P2
2022/09/18 00:01:19;;;;;;;11.40;1.40;;;12.10;99.90;;;;;;5032278;28;20103;-70
2022/09/18 00:03:46;;;;;;;13.20;1.60;;;;;;;;;;5032207;28;20080;-71
2022/09/18 00:06:16;;;;;;;13.23;1.77;;;;;;;;;;5033417;28;20048;-69
2022/09/18 00:08:43;;;;;;;16.00;2.05;;;;;;;;;;5033143;28;20049;-70
2022/09/18 00:11:13;;;;;;;15.88;2.15;;;12.20;99.90;;;;;;5032471;28;20041;-70
2022/09/18 00:13:39;;;;;;;10.85;1.90;;;12.30;99.90;;;;;;5031912;28;20120;-70
2022/09/18 00:16:07;;;;;;;14.13;2.25;;;12.10;99.90;;;;;;5032237;28;20040;-70
2022/09/18 00:18:33;;;;;;;14.05;1.83;;;;;;;;;;5031662;28;20041;-70
2022/09/18 00:21:07;;;;;;;16.33;1.92;;;12.30;99.90;;;;;;5031910;28;20044;-70
2022/09/18 00:23:33;;;;;;;13.68;1.80;;;;;;;;;;5032030;28;20045;-69
2022/09/18 00:25:59;;;;;;;18.15;2.35;;;;;;;;;;5031556;28;20125;-70
2022/09/18 00:28:25;;;;;;;16.40;1.77;;;;;;;;;;5031350;28;20501;-72
2022/09/18 00:30:52;;;;;;;16.52;2.00;;;;;;;;;;5032162;28;20033;-72
2022/09/18 00:33:19;;;;;;;18.35;2.17;;;;;;;;;;5031634;28;20120;-73
2022/09/18 00:35:45;;;;;;;11.63;1.70;;;;;;;;;;5031850;28;20048;-73
2022/09/18 00:38:12;;;;;;;14.15;2.15;;;;;;;;;;5033017;28;20037;-72
2022/09/18 00:40:38;;;;;;;13.32;2.05;;;;;;;;;;5031795;28;20042;-72
2022/09/18 00:43:22;;;;;;;9.55;1.65;;;12.30;99.90;;;;;;5034391;28;20052;-72
2022/09/18 00:45:52;;;;;;;22.50;2.42;;;;;;;;;;5036130;28;20087;-72
2022/09/18 00:48:18;;;;;;;25.00;3.25;;;;;;;;;;5037748;28;20038;-72
2022/09/18 00:50:44;;;;;;;18.65;2.30;;;;;;;;;;5036528;28;20486;-72
2022/09/18 00:53:10;;;;;;;14.32;1.80;;;12.40;99.90;;;;;;5019854;28;20100;-72
2022/09/18 00:55:37;;;;;;;16.75;2.10;;;;;;;;;;5035686;28;20116;-72
2022/09/18 00:58:04;;;;;;;15.50;1.58;;;12.20;99.90;;;;;;5035942;28;20052;-72
2022/09/18 01:00:31;;;;;;;16.92;1.90;;;12.20;99.90;;;;;;5035753;28;20508;-72
2022/09/18 01:03:00;;;;;;;14.95;1.42;;;12.20;99.90;;;;;;5018880;28;20053;-72
2022/09/18 01:05:58;;;;;;;15.15;1.80;;;12.20;99.90;;;;;;5036640;28;20052;-73
2022/09/18 01:08:28;;;;;;;9.85;1.42;;;;;;;;;;5035616;28;20084;-72
2022/09/18 01:11:12;;;;;;;15.48;2.53;;;12.20;99.90;;;;;;5019324;28;20099;-72
2022/09/18 01:14:06;;;;;;;20.58;2.10;;;12.10;99.90;;;;;;5035372;28;20397;-73
2022/09/18 01:16:53;;;;;;;13.55;1.80;;;;;;;;;;5034993;28;20045;-73
2022/09/18 01:19:22;;;;;;;12.55;1.65;;;;;;;;;;5018527;28;20080;-72
2022/09/18 01:22:16;;;;;;;13.63;2.40;;;12.40;99.90;;;;;;5035524;28;20140;-72
2022/09/18 01:24:52;;;;;;;12.40;2.08;;;12.30;99.90;;;;;;5037154;28;20049;-72
2022/09/18 01:27:26;;;;;;;12.52;1.88;;;;;;;;;;5034536;28;20053;-73
2022/09/18 01:29:55;;;;;;;17.02;2.00;;;;;;;;;;5034860;28;20504;-72
2022/09/18 01:32:25;;;;;;;14.68;1.80;;;;;;;;;;5035059;28;20037;-72
2022/09/18 01:35:12;;;;;;;18.13;2.38;;;;;;;;;;5034904;28;20088;-72
2022/09/18 01:37:52;;;;;;;22.45;2.65;;;;;;;;;;5034451;28;20127;-72
2022/09/18 01:40:18;;;;;;;13.98;1.90;;;;;;;;;;5034823;28;20107;-73
2022/09/18 01:42:47;;;;;;;14.30;3.17;;;12.40;99.90;;;;;;5018511;28;20098;-73
2022/09/18 01:45:19;;;;;;;10.38;1.80;;;12.40;99.90;;;;;;5034738;28;20045;-73
2022/09/18 01:47:50;;;;;;;;;;;12.30;99.90;;;;;;5034501;28;20041;-73
2022/09/18 01:50:17;;;;;;;15.38;1.42;;;12.60;99.90;;;;;;5034962;28;19917;-73
2022/09/18 01:53:06;;;;;;;14.68;2.05;;;12.20;99.90;;;;;;5034433;28;20048;-72
2022/09/18 01:55:34;;;;;;;10.27;1.85;;;12.30;99.90;;;;;;5011581;28;20076;-72
2022/09/18 01:58:10;;;;;;;10.38;1.65;;;12.20;99.90;;;;;;5034325;28;20049;-73
2022/09/18 02:00:38;;;;;;;20.08;3.38;;;;;;;;;;5034855;28;20124;-73
2022/09/18 02:03:14;;;;;;;18.45;3.13;;;11.00;99.90;;;;;;5034621;28;20045;-73
2022/09/18 02:05:46;;;;;;;9.15;1.50;;;12.30;99.90;;;;;;5034744;28;20049;-73
2022/09/18 02:08:37;;;;;;;13.88;1.73;;;11.10;99.90;;;;;;5034226;28;20139;-73
2022/09/18 02:11:11;;;;;;;12.52;1.55;;;12.20;99.90;;;;;;5035569;28;20508;-73
2022/09/18 02:13:43;;;;;;;10.27;1.65;;;11.90;99.90;;;;;;5034511;28;20084;-72
2022/09/18 02:16:12;;;;;;;9.52;1.27;;;;;;;;;;5034368;28;20040;-73
2022/09/18 02:18:43;;;;;;;9.27;1.63;;;11.80;99.90;;;;;;5033937;28;20124;-73
2022/09/18 02:21:12;;;;;;;9.90;1.87;;;10.90;99.90;;;;;;5035351;28;20041;-73
2022/09/18 02:23:41;;;;;;;11.27;1.65;;;11.70;99.90;;;;;;5034312;28;20121;-74
2022/09/18 02:26:07;;;;;;;4.22;1.08;;;;;;;;;;5034245;28;20045;-73
2022/09/18 02:28:35;;;;;;;9.40;1.50;;;11.60;99.90;;;;;;5033830;28;20041;-73
2022/09/18 02:31:02;;;;;;;5.55;1.25;;;;;;;;;;5017467;28;20100;-73
2022/09/18 02:33:28;;;;;;;10.18;1.40;;;;;;;;;;5033858;28;20132;-73
2022/09/18 02:36:06;;;;;;;14.52;1.70;;;;;;;;;;5033844;28;20441;-73
2022/09/18 02:38:51;;;;;;;10.55;1.85;;;11.70;99.90;;;;;;5033893;28;20118;-73
2022/09/18 02:41:22;;;;;;;16.08;1.75;;;11.70;99.90;;;;;;5018728;28;20048;-73
2022/09/18 02:44:16;;;;;;;9.23;1.27;;;11.60;99.90;;;;;;5017707;28;20456;-73
2022/09/18 02:46:58;;;;;;;9.82;1.67;;;11.60;99.90;;;;;;5033515;28;20555;-73
2022/09/18 02:49:33;;;;;;;5.53;1.33;;;;;;;;;;5033920;28;20041;-73
2022/09/18 02:52:15;;;;;;;15.40;1.67;;;;;;;;;;5033447;28;20482;-73
2022/09/18 02:54:48;;;;;;;10.80;2.17;;;11.30;99.90;;;;;;5033220;28;20490;-73
2022/09/18 02:57:39;;;;;;;16.88;2.35;;;11.40;99.90;;;;;;5033380;28;20049;-73
2022/09/18 03:00:07;;;;;;;15.07;2.38;;;11.60;99.90;;;;;;5044894;28;20111;-73
2022/09/18 03:02:33;;;;;;;17.23;3.00;;;;;;;;;;5033500;28;20053;-73
2022/09/18 03:04:59;;;;;;;7.72;1.60;;;;;;;;;;5032769;28;20432;-73
2022/09/18 03:07:25;;;;;;;9.40;1.83;;;;;;;;;;5032774;28;20064;-73
2022/09/18 03:09:51;;;;;;;10.95;1.52;;;;;;;;;;5016226;28;20037;-73
2022/09/18 03:12:17;;;;;;;9.40;1.67;;;;;;;;;;5032833;28;20121;-74
2022/09/18 03:14:43;;;;;;;8.85;1.65;;;;;;;;;;5033196;28;20044;-73
2022/09/18 03:17:09;;;;;;;10.50;1.60;;;;;;;;;;5031715;28;20103;-73
2022/09/18 03:19:35;;;;;;;9.98;1.30;;;;;;;;;;5032681;28;20196;-73
2022/09/18 03:22:01;;;;;;;13.55;1.77;;;;;;;;;;5032965;28;20433;-73
2022/09/18 03:24:28;;;;;;;11.15;1.90;;;;;;;;;;5032794;28;20050;-73
2022/09/18 03:26:54;;;;;;;10.93;1.38;;;;;;;;;;5033112;28;20132;-73
2022/09/18 03:29:20;;;;;;;15.23;1.40;;;;;;;;;;5032896;28;20069;-73
2022/09/18 03:31:46;;;;;;;16.38;1.60;;;;;;;;;;5032754;28;20044;-73
2022/09/18 03:34:12;;;;;;;16.88;2.25;;;;;;;;;;5032141;28;20635;-72
2022/09/18 03:36:38;;;;;;;12.25;1.55;;;;;;;;;;5032813;28;20128;-73
2022/09/18 03:39:04;;;;;;;9.13;1.67;;;;;;;;;;5016352;28;20049;-73
2022/09/18 03:41:31;;;;;;;11.25;1.45;;;;;;;;;;5016454;28;20099;-72
2022/09/18 03:43:57;;;;;;;13.15;1.50;;;;;;;;;;5016021;28;20073;-72
2022/09/18 03:46:23;;;;;;;13.13;1.75;;;;;;;;;;5016207;28;20398;-72
2022/09/18 03:48:50;;;;;;;13.93;1.95;;;11.90;99.90;;;;;;5032273;28;20490;-74
2022/09/18 03:51:17;;;;;;;18.88;2.72;;;12.00;99.90;;;;;;5031945;28;20041;-75
2022/09/18 03:53:44;;;;;;;14.75;1.95;;;;;;;;;;5032402;28;20043;-74
2022/09/18 03:56:10;;;;;;;8.80;1.40;;;;;;;;;;5032527;28;20084;-74
2022/09/18 03:58:36;;;;;;;14.40;1.88;;;;;;;;;;5032425;28;20102;-74
2022/09/18 04:01:02;;;;;;;7.57;1.52;;;;;;;;;;5032585;28;20452;-74
2022/09/18 04:03:28;;;;;;;9.15;1.58;;;;;;;;;;5031871;28;20116;-74
2022/09/18 04:05:55;;;;;;;8.73;1.50;;;;;;;;;;5016155;28;20394;-74
2022/09/18 04:08:21;;;;;;;5.28;0.95;;;;;;;;;;5032393;28;20042;-73
2022/09/18 04:10:47;;;;;;;7.93;1.95;;;;;;;;;;5032195;28;20049;-73
2022/09/18 04:13:13;;;;;;;6.50;1.30;;;;;;;;;;5030341;28;20049;-74
2022/09/18 04:15:39;;;;;;;9.45;1.48;;;;;;;;;;5030158;28;20029;-73
2022/09/18 04:18:05;;;;;;;14.38;1.30;;;;;;;;;;5030802;28;20050;-73
2022/09/18 04:20:31;;;;;;;7.25;1.40;;;;;;;;;;5032138;28;20046;-73
2022/09/18 04:22:57;;;;;;;4.82;1.10;;;;;;;;;;5032317;28;20063;-73
2022/09/18 04:25:24;;;;;;;4.70;1.70;;;;;;;;;;5031345;28;20051;-73
2022/09/18 04:27:51;;;;;;;7.45;0.90;;;;;;;;;;5032347;28;20121;-73
2022/09/18 04:30:17;;;;;;;6.63;1.20;;;;;;;;;;5032037;28;20034;-73
2022/09/18 04:32:44;;;;;;;14.05;1.58;;;;;;;;;;5033674;28;20038;-73
2022/09/18 04:35:10;;;;;;;10.57;1.90;;;;;;;;;;5032843;28;20129;-73
2022/09/18 04:37:36;;;;;;;10.43;1.38;;;;;;;;;;5015254;28;20099;-73
2022/09/18 04:40:04;;;;;;;13.20;1.80;;;11.30;99.90;;;;;;5031809;28;20045;-72
2022/09/18 04:42:30;;;;;;;11.32;1.52;;;;;;;;;;5015386;28;20041;-73
2022/09/18 04:44:56;;;;;;;9.85;1.85;;;;;;;;;;5031753;28;20040;-73
2022/09/18 04:47:22;;;;;;;5.80;1.48;;;;;;;;;;5033304;28;20049;-72
2022/09/18 04:49:48;;;;;;;10.63;1.60;;;;;;;;;;5031935;28;20125;-73
2022/09/18 04:52:14;;;;;;;7.93;1.15;;;;;;;;;;5031803;28;20045;-73
2022/09/18 04:54:40;;;;;;;16.20;1.65;;;;;;;;;;5015543;28;20099;-73
2022/09/18 04:57:06;;;;;;;7.35;1.60;;;;;;;;;;5031909;28;20049;-72
2022/09/18 04:59:32;;;;;;;8.30;1.20;;;;;;;;;;5015569;28;20045;-73
2022/09/18 05:01:59;;;;;;;9.73;1.48;;;;;;;;;;5031716;28;20087;-73
2022/09/18 05:04:25;;;;;;;8.40;1.50;;;;;;;;;;5032264;28;20072;-74
2022/09/18 05:06:51;;;;;;;17.40;1.65;;;;;;;;;;5015195;28;20049;-73
2022/09/18 05:09:17;;;;;;;8.18;1.50;;;;;;;;;;5032919;28;20112;-74
2022/09/18 05:11:43;;;;;;;11.93;1.77;;;;;;;;;;5031566;28;20041;-74
2022/09/18 05:14:09;;;;;;;9.85;1.38;;;;;;;;;;5015415;28;20033;-74
2022/09/18 05:16:35;;;;;;;6.85;1.40;;;;;;;;;;5029952;28;20407;-75
2022/09/18 05:19:01;;;;;;;13.80;1.50;;;;;;;;;;5030290;28;20103;-74
2022/09/18 05:21:27;;;;;;;12.02;1.52;;;;;;;;;;5014468;28;20120;-74
2022/09/18 05:23:53;;;;;;;19.42;2.28;;;;;;;;;;5030697;28;20037;-74
2022/09/18 05:26:19;;;;;;;12.75;1.80;;;;;;;;;;5031022;28;20103;-73
2022/09/18 05:28:48;;;;;;;16.45;2.00;;;;;;;;;;5032702;28;20049;-73
2022/09/18 05:31:15;;;;;;;14.43;2.00;;;;;;;;;;5034755;28;20042;-73
2022/09/18 05:33:41;;;;;;;20.75;3.03;;;;;;;;;;5035304;28;20268;-73
2022/09/18 05:36:07;;;;;;;15.20;2.25;;;;;;;;;;5032761;28;20060;-74
2022/09/18 05:38:34;;;;;;;13.68;2.00;;;;;;;;;;5030907;28;20073;-73
2022/09/18 05:41:03;;;;;;;10.07;1.63;;;;;;;;;;5034572;28;20124;-75
2022/09/18 05:43:29;;;;;;;12.43;2.00;;;;;;;;;;5034004;28;20045;-73
2022/09/18 05:45:56;;;;;;;12.93;1.67;;;;;;;;;;5034709;28;20559;-73
2022/09/18 05:48:23;;;;;;;10.95;1.60;;;;;;;;;;5034437;28;20087;-73
2022/09/18 05:50:50;;;;;;;11.75;1.95;;;;;;;;;;5018797;28;20462;-73
2022/09/18 05:53:18;;;;;;;12.85;1.75;;;;;;;;;;5018213;28;20041;-73
2022/09/18 05:55:44;;;;;;;10.00;1.98;;;;;;;;;;5034658;28;20048;-73
2022/09/18 05:58:15;;;;;;;15.73;2.47;;;11.00;99.90;;;;;;5035502;28;20045;-73
2022/09/18 06:00:43;;;;;;;11.20;1.75;;;;;;;;;;5034507;28;20095;-73
2022/09/18 06:03:11;;;;;;;21.38;2.63;;;11.20;99.90;;;;;;5034283;28;20084;-73
2022/09/18 06:05:37;;;;;;;17.50;2.53;;;;;;;;;;5034173;28;20049;-73
2022/09/18 06:08:05;;;;;;;10.90;1.70;;;11.10;99.90;;;;;;5035753;28;20041;-73
2022/09/18 06:10:32;;;;;;;12.38;1.50;;;11.10;99.90;;;;;;5034237;28;20424;-73
2022/09/18 06:13:01;;;;;;;19.58;1.95;;;;;;;;;;5035692;28;20044;-73
2022/09/18 06:15:28;;;;;;;11.70;1.85;;;;;;;;;;5034333;28;20482;-73
2022/09/18 06:17:54;;;;;;;10.48;2.13;;;;;;;;;;5034261;28;20444;-73
2022/09/18 06:20:20;;;;;;;12.45;2.60;;;;;;;;;;5034184;28;20128;-73
2022/09/18 06:22:46;;;;;;;12.52;1.83;;;;;;;;;;5034324;28;20045;-73
2022/09/18 06:25:12;;;;;;;11.05;1.85;;;;;;;;;;5034226;28;20041;-74
2022/09/18 06:27:38;;;;;;;6.57;1.50;;;;;;;;;;5033617;28;20040;-73
2022/09/18 06:30:05;;;;;;;10.40;2.05;;;;;;;;;;5032750;28;20037;-74
2022/09/18 06:32:31;;;;;;;7.28;1.55;;;;;;;;;;5032204;28;20067;-74
2022/09/18 06:34:57;;;;;;;13.63;1.77;;;;;;;;;;5033828;28;20108;-74
2022/09/18 06:37:23;;;;;;;9.20;1.73;;;;;;;;;;5032577;28;20077;-74
2022/09/18 06:39:49;;;;;;;12.63;1.65;;;;;;;;;;5031042;28;20084;-73
2022/09/18 06:42:16;;;;;;;12.27;1.95;;;;;;;;;;5032097;28;20088;-74
2022/09/18 06:44:42;;;;;;;15.95;2.33;;;;;;;;;;5014043;28;20033;-73
2022/09/18 06:47:08;;;;;;;8.20;1.40;;;;;;;;;;5032496;28;20048;-73
2022/09/18 06:49:34;;;;;;;8.82;1.75;;;;;;;;;;5010539;28;20046;-76
2022/09/18 06:52:00;;;;;;;7.03;1.48;;;;;;;;;;5032897;28;20124;-74
2022/09/18 06:54:26;;;;;;;17.52;2.67;;;;;;;;;;5033785;28;20095;-77
2022/09/18 06:56:52;;;;;;;14.50;2.03;;;;;;;;;;5032675;28;20114;-77
2022/09/18 06:59:18;;;;;;;13.82;2.65;;;;;;;;;;5033050;28;20045;-76
2022/09/18 07:01:46;;;;;;;17.92;2.47;;;11.30;99.90;;;;;;5033380;28;21346;-76
2022/09/18 07:04:12;;;;;;;15.13;1.95;;;;;;;;;;5033461;28;20042;-75
2022/09/18 07:06:38;;;;;;;11.18;1.92;;;;;;;;;;5016668;28;20046;-75
2022/09/18 07:09:04;;;;;;;11.90;2.00;;;;;;;;;;5033497;28;20037;-74
2022/09/18 07:11:31;;;;;;;12.95;1.88;;;;;;;;;;5016639;28;20111;-74
2022/09/18 07:13:57;;;;;;;12.35;1.75;;;;;;;;;;5031608;28;20056;-74
2022/09/18 07:16:24;;;;;;;19.48;1.73;;;;;;;;;;5032914;28;20049;-75
2022/09/18 07:18:52;;;;;;;14.52;2.47;;;;;;;;;;5033144;28;20381;-75
2022/09/18 07:21:28;;;;;;;11.32;1.33;;;;;;;;;;5032837;28;20064;-76
2022/09/18 07:24:13;;;;;;;12.93;2.20;;;;;;;;;;5013247;28;20081;-74
2022/09/18 07:26:39;;;;;;;11.30;1.40;;;;;;;;;;5028472;28;20104;-75
2022/09/18 07:29:05;;;;;;;15.20;2.30;;;;;;;;;;5018674;28;20037;-75
2022/09/18 07:31:38;;;;;;;16.77;2.03;;;11.20;99.90;;;;;;5016641;28;20116;-74
2022/09/18 07:34:06;;;;;;;18.92;2.45;;;;;;;;;;5016262;28;20493;-75
2022/09/18 07:36:32;;;;;;;16.35;1.70;;;;;;;;;;5016847;28;20087;-75
2022/09/18 07:39:01;;;;;;;9.70;1.73;;;11.40;99.90;;;;;;5032605;28;20045;-74
2022/09/18 07:41:27;;;;;;;11.75;1.55;;;;;;;;;;5016089;28;20033;-74
2022/09/18 07:43:54;;;;;;;16.02;1.60;;;;;;;;;;5015282;28;20044;-74
2022/09/18 07:46:26;;;;;;;;;;;11.60;99.90;;;;;;5013203;28;20053;-74
2022/09/18 07:48:51;;;;;;;10.05;1.10;;;11.90;99.90;;;;;;5012736;28;19924;-74
2022/09/18 07:51:18;;;;;;;13.10;1.98;;;;;;;;;;5014849;28;20081;-74
2022/09/18 07:53:44;;;;;;;7.50;1.20;;;;;;;;;;5015851;28;20128;-75
2022/09/18 07:56:11;;;;;;;8.23;1.40;;;11.50;99.90;;;;;;5031937;28;20052;-75
2022/09/18 07:58:37;;;;;;;7.07;1.20;;;11.10;99.90;;;;;;5052188;28;20055;-75
2022/09/18 08:01:04;;;;;;;10.10;2.20;;;11.50;99.90;;;;;;5044542;28;20396;-75
2022/09/18 08:03:31;;;;;;;9.93;1.30;;;;;;;;;;5031984;28;20076;-75
2022/09/18 08:05:57;;;;;;;11.55;1.20;;;;;;;;;;5015423;28;20047;-75
2022/09/18 08:08:23;;;;;;;11.98;1.23;;;;;;;;;;5028955;28;20049;-75
2022/09/18 08:10:50;;;;;;;12.55;1.60;;;;;;;;;;5001715;28;20453;-75
2022/09/18 08:13:19;;;;;;;15.68;2.00;;;;;;;;;;5028018;28;20045;-75
2022/09/18 08:15:45;;;;;;;11.75;2.17;;;;;;;;;;5020748;28;20048;-74
2022/09/18 08:18:12;;;;;;;11.90;1.85;;;;;;;;;;5051640;28;20114;-75
2022/09/18 08:20:38;;;;;;;4.88;1.25;;;;;;;;;;5039683;28;20044;-74
2022/09/18 08:23:09;;;;;;;9.32;1.25;;;11.70;99.90;;;;;;5015726;28;20041;-75
2022/09/18 08:25:36;;;;;;;14.48;2.05;;;;;;;;;;5032207;28;20076;-74
2022/09/18 08:28:06;;;;;;;13.10;1.60;;;10.90;99.90;;;;;;5031934;28;20081;-75
2022/09/18 08:30:34;;;;;;;9.48;1.52;;;11.40;99.90;;;;;;5031617;28;20041;-75
2022/09/18 08:33:06;;;;;;;6.47;1.45;;;11.30;99.90;;;;;;5031482;28;20056;-75
2022/09/18 08:35:32;;;;;;;12.00;1.52;;;;;;;;;;5031677;28;20049;-75
2022/09/18 08:38:30;;;;;;;7.32;1.20;;;11.40;99.90;;;;;;5031475;28;20393;-75
2022/09/18 08:41:15;;;;;;;8.98;1.10;;;;;;;;;;4999578;28;20128;-75
2022/09/18 08:43:55;;;;;;;10.20;1.35;;;11.60;99.90;;;;;;5030926;28;20044;-76
2022/09/18 08:46:22;;;;;;;6.15;1.23;;;;;;;;;;5013611;28;20442;-76
2022/09/18 08:48:55;;;;;;;10.20;1.13;;;;;;;;;;5029511;28;20041;-75
2022/09/18 08:51:21;;;;;;;6.80;1.80;;;;;;;;;;5023528;28;20053;-75
2022/09/18 08:53:49;;;;;;;8.85;1.30;;;;;;;;;;5004794;28;20041;-75
2022/09/18 08:56:20;;;;;;;12.00;1.50;;;11.50;99.90;;;;;;5024416;28;20485;-75
2022/09/18 08:58:53;;;;;;;10.13;1.65;;;11.50;99.90;;;;;;5024495;28;20505;-75
2022/09/18 09:01:21;;;;;;;14.85;2.10;;;11.60;99.90;;;;;;5015472;28;20042;-75
2022/09/18 09:04:01;;;;;;;15.05;1.70;;;;;;;;;;5019026;28;20045;-75
2022/09/18 09:06:49;;;;;;;9.30;1.48;;;11.40;99.90;;;;;;5027018;28;20152;-75
2022/09/18 09:09:39;;;;;;;16.05;2.20;;;11.70;99.90;;;;;;5030996;28;20049;-74
2022/09/18 09:12:21;;;;;;;15.32;2.20;;;;;;;;;;5031251;28;20081;-75
2022/09/18 09:15:10;;;;;;;17.02;2.45;;;11.40;99.90;;;;;;5034818;28;20045;-75
2022/09/18 09:17:42;;;;;;;15.45;2.08;;;;;;;;;;4999655;28;20041;-75
2022/09/18 09:20:24;;;;;;;15.05;2.00;;;11.60;99.90;;;;;;5018040;28;20131;-75
2022/09/18 09:23:02;;;;;;;10.50;1.60;;;;;;;;;;5018625;28;20041;-76
2022/09/18 09:25:58;;;;;;;15.77;2.17;;;11.40;99.90;;;;;;5034685;28;20041;-76
2022/09/18 09:28:31;;;;;;;10.73;1.92;;;;;;;;;;5033959;28;20563;-76
2022/09/18 09:30:59;;;;;;;12.50;2.10;;;;;;;;;;5034636;28;20033;-75
2022/09/18 09:33:29;;;;;;;17.90;1.95;;;;;;;;;;5034678;28;20100;-76
2022/09/18 09:36:01;;;;;;;15.82;3.00;;;;;;;;;;5034511;28;20033;-76
2022/09/18 09:38:40;;;;;;;14.73;1.65;;;;;;;;;;5034833;28;20044;-79
2022/09/18 09:41:13;;;;;;;11.70;1.75;;;;;;;;;;5033808;28;20048;-75
2022/09/18 09:43:55;;;;;;;20.92;3.00;;;;;;;;;;5034823;28;20454;-77
2022/09/18 09:46:34;;;;;;;13.23;1.80;;;11.60;99.90;;;;;;5034281;28;20557;-77
2022/09/18 09:49:24;;;;;;;18.67;2.40;;;11.40;99.90;;;;;;5017874;28;20091;-76
2022/09/18 09:52:20;;;;;;;17.48;2.45;;;11.60;99.90;;;;;;5017861;28;20030;-76
2022/09/18 09:54:47;;;;;;;11.98;1.85;;;11.30;99.90;;;;;;5009754;28;20045;-77
2022/09/18 09:57:16;;;;;;;21.25;2.97;;;;;;;;;;5033206;28;20053;-76
2022/09/18 09:59:45;;;;;;;16.95;2.03;;;;;;;;;;5018897;28;20076;-75
2022/09/18 10:02:26;;;;;;;16.13;2.08;;;11.50;99.90;;;;;;5018820;28;20123;-75
2022/09/18 10:05:16;;;;;;;23.00;3.78;;;11.50;99.90;;;;;;5034385;28;20125;-75
2022/09/18 10:07:53;;;;;;;16.40;2.10;;;11.60;99.90;;;;;;5017417;28;20141;-75
2022/09/18 10:10:19;;;;;;;16.55;2.40;;;;;;;;;;5034580;28;20139;-74
2022/09/18 10:12:54;;;;;;;18.05;2.05;;;11.70;99.90;;;;;;5034484;28;20045;-74
2022/09/18 10:15:38;;;;;;;8.45;1.80;;;11.70;99.90;;;;;;5033219;28;20041;-74
2022/09/18 10:18:13;;;;;;;21.95;3.05;;;;;;;;;;5040485;28;20032;-74
2022/09/18 10:20:39;;;;;;;15.90;2.90;;;;;;;;;;5026064;28;20037;-74
2022/09/18 10:23:12;;;;;;;21.52;2.45;;;11.90;99.90;;;;;;5017307;28;20041;-74
2022/09/18 10:25:58;;;;;;;14.07;3.33;;;12.00;99.90;;;;;;5033697;28;20045;-74
2022/09/18 10:28:28;;;;;;;29.48;2.45;;;13.00;99.90;;;;;;5000901;28;20044;-74
2022/09/18 10:31:01;;;;;;;18.40;2.60;;;12.00;99.90;;;;;;5017605;28;20037;-73
2022/09/18 10:33:31;;;;;;;16.40;2.45;;;;;;;;;;5017318;28;20111;-74
2022/09/18 10:36:32;;;;;;;19.33;3.05;;;12.30;99.90;;;;;;5033282;28;20054;-74
2022/09/18 10:38:59;;;;;;;14.77;2.28;;;12.20;99.90;;;;;;5041854;28;20033;-74
2022/09/18 10:41:33;;;;;;;14.48;2.17;;;12.20;99.90;;;;;;5017157;28;20124;-74
2022/09/18 10:44:08;;;;;;;8.77;1.40;;;12.50;99.90;;;;;;5017110;28;20041;-74
2022/09/18 10:46:55;;;;;;;11.43;1.50;;;12.40;99.90;;;;;;5033031;28;20041;-74
2022/09/18 10:49:28;;;;;;;8.02;1.52;;;;;;;;;;5008560;28;20046;-73
2022/09/18 10:52:14;;;;;;;15.73;2.17;;;;;;;;;;5031520;28;20037;-73
2022/09/18 10:54:40;;;;;;;10.00;1.60;;;;;;;;;;5031847;28;20549;-74
2022/09/18 10:57:29;;;;;;;12.48;2.20;;;12.90;99.90;;;;;;5015403;28;20053;-73
2022/09/18 10:59:55;;;;;;;19.88;2.60;;;;;;;;;;5032026;28;20045;-73
2022/09/18 11:02:23;;;;;;;20.23;2.05;;;;;;;;;;5033391;28;20042;-73
2022/09/18 11:04:49;;;;;;;16.80;2.05;;;;;;;;;;5033401;28;20485;-73
2022/09/18 11:07:16;;;;;;;17.70;2.42;;;12.80;99.90;;;;;;5033270;28;20175;-73
2022/09/18 11:09:43;;;;;;;12.55;1.90;;;;;;;;;;5016818;28;20049;-73
2022/09/18 11:12:21;;;;;;;11.07;1.55;;;13.00;99.90;;;;;;5032582;28;20041;-73
2022/09/18 11:15:03;;;;;;;20.70;2.22;;;13.10;99.90;;;;;;5033352;28;20041;-73
2022/09/18 11:17:32;;;;;;;21.63;2.95;;;12.90;99.90;;;;;;5016609;28;20052;-73
2022/09/18 11:19:59;;;;;;;21.05;2.10;;;12.90;99.90;;;;;;5034260;28;20037;-72
2022/09/18 11:22:43;;;;;;;16.33;1.88;;;13.10;99.90;;;;;;5032648;28;20410;-72
2022/09/18 11:25:12;;;;;;;15.82;1.58;;;;;;;;;;5033320;28;20049;-72
2022/09/18 11:27:56;;;;;;;9.95;1.58;;;13.00;99.90;;;;;;5032548;28;20120;-72
2022/09/18 11:30:24;;;;;;;8.57;2.05;;;13.10;99.90;;;;;;5032716;28;20048;-73
2022/09/18 11:32:59;;;;;;;16.50;2.05;;;13.30;99.90;;;;;;5016652;28;20444;-74
2022/09/18 11:35:27;;;;;;;14.05;2.72;;;;;;;;;;5032041;28;20115;-75
2022/09/18 11:37:56;;;;;;;8.77;1.55;;;12.60;99.90;;;;;;5033050;28;20461;-75
2022/09/18 11:40:30;;;;;;;9.88;1.40;;;12.50;99.90;;;;;;5032862;28;20049;-74
2022/09/18 11:42:56;;;;;;;8.93;1.55;;;;;;;;;;5032315;28;20041;-75
2022/09/18 11:45:40;;;;;;;8.23;1.85;;;12.20;99.90;;;;;;5032472;28;20559;-75
2022/09/18 11:48:09;;;;;;;14.45;2.05;;;;;;;;;;5015027;28;20049;-75
2022/09/18 11:50:37;;;;;;;7.60;1.58;;;12.00;99.90;;;;;;5016368;28;20112;-74
2022/09/18 11:53:16;;;;;;;11.07;1.83;;;12.60;99.90;;;;;;5015851;28;20045;-75
2022/09/18 11:56:03;;;;;;;10.30;1.52;;;12.40;99.90;;;;;;5015837;28;20037;-74
2022/09/18 11:58:38;;;;;;;8.90;1.88;;;;;;;;;;5032188;28;20124;-74
2022/09/18 12:01:11;;;;;;;8.70;1.60;;;;;;;;;;5015835;28;20053;-74
2022/09/18 12:03:41;;;;;;;8.10;1.40;;;;;;;;;;5015482;28;20048;-74
2022/09/18 12:06:12;;;;;;;10.77;1.55;;;;;;;;;;5015442;28;20055;-74
2022/09/18 12:09:03;;;;;;;13.25;2.05;;;12.60;99.90;;;;;;5012426;28;20100;-74
2022/09/18 12:11:37;;;;;;;9.98;1.77;;;;;;;;;;4996465;28;20056;-74
2022/09/18 12:14:32;;;;;;;8.38;1.70;;;12.70;99.90;;;;;;5023144;28;20037;-74
2022/09/18 12:17:02;;;;;;;18.75;2.47;;;;;;;;;;5012403;28;20131;-73
2022/09/18 12:19:48;;;;;;;10.85;1.92;;;12.50;99.90;;;;;;5024265;28;20405;-74
2022/09/18 12:22:14;;;;;;;16.85;2.17;;;;;;;;;;5013986;28;20136;-74
2022/09/18 12:24:43;;;;;;;18.02;2.10;;;;;;;;;;5031935;28;20045;-74
2022/09/18 12:27:29;;;;;;;14.65;1.60;;;12.80;99.90;;;;;;5031849;28;20106;-74
2022/09/18 12:30:10;;;;;;;15.63;1.80;;;12.60;99.90;;;;;;5015711;28;20088;-73
2022/09/18 12:32:47;;;;;;;12.32;1.80;;;13.60;99.90;;;;;;5031965;28;20060;-73
2022/09/18 12:35:35;;;;;;;9.02;1.67;;;12.90;99.90;;;;;;5031309;28;20065;-74
2022/09/18 12:41:42;;;;;;;15.13;1.70;;;12.80;99.90;;;;;;5036207;28;20080;-73
2022/09/18 12:44:22;;;;;;;22.10;2.38;;;12.80;99.90;;;;;;5019793;28;20286;-74
2022/09/18 12:47:16;;;;;;;35.17;4.47;;;13.10;99.90;;;;;;5036305;28;20041;-74
2022/09/18 12:49:48;;;;;;;9.98;1.63;;;13.00;99.90;;;;;;5035087;28;20061;-74
2022/09/18 12:52:17;;;;;;;8.82;1.67;;;;;;;;;;5035744;28;20037;-71
2022/09/18 12:54:49;;;;;;;11.60;2.28;;;;;;;;;;5035919;28;20125;-71
2022/09/18 12:57:39;;;;;;;23.58;2.72;;;12.80;99.90;;;;;;5035909;28;20053;-70
2022/09/18 13:00:15;;;;;;;8.52;1.60;;;13.00;99.90;;;;;;5035121;28;20051;-68
2022/09/18 13:02:45;;;;;;;16.13;1.83;;;;;;;;;;5035786;28;20053;-68
2022/09/18 13:05:32;;;;;;;15.00;1.85;;;12.80;99.90;;;;;;5034607;28;20049;-68
2022/09/18 13:08:31;;;;;;;11.57;1.52;;;12.70;99.90;;;;;;5035353;28;20095;-68
2022/09/18 13:11:29;;;;;;;15.63;2.08;;;12.80;99.90;;;;;;5022234;28;20033;-68
2022/09/18 13:14:08;;;;;;;13.05;2.13;;;13.00;99.90;;;;;;5035210;28;20033;-68
2022/09/18 13:16:37;;;;;;;9.90;1.55;;;;;;;;;;5035352;28;20045;-68
2022/09/18 13:19:18;;;;;;;11.73;1.50;;;13.00;99.90;;;;;;5034538;28;20056;-68
2022/09/18 13:21:46;;;;;;;14.82;1.80;;;13.10;99.90;;;;;;5034778;28;20049;-68
2022/09/18 13:24:18;;;;;;;11.43;2.22;;;13.10;99.90;;;;;;5036413;28;20501;-68
2022/09/18 13:26:46;;;;;;;15.43;2.05;;;;;;;;;;5034731;28;20049;-68
2022/09/18 13:29:50;;;;;;;10.85;1.63;;;13.10;99.90;;;;;;5034976;28;20037;-68
2022/09/18 13:32:20;;;;;;;16.00;2.38;;;13.30;99.90;;;;;;5033870;28;20029;-68
2022/09/18 13:34:52;;;;;;;12.77;2.42;;;;;;;;;;5037103;28;20046;-68
2022/09/18 13:37:21;;;;;;;8.10;1.50;;;13.20;99.90;;;;;;5034945;28;20049;-68
2022/09/18 13:40:08;;;;;;;12.27;2.25;;;;;;;;;;5045450;28;20041;-68
2022/09/18 13:42:41;;;;;;;9.48;1.63;;;13.30;99.90;;;;;;5042984;28;20052;-68
2022/09/18 13:45:18;;;;;;;10.95;1.67;;;13.30;99.90;;;;;;5033699;28;20060;-68
2022/09/18 13:48:03;;;;;;;18.02;2.13;;;;;;;;;;5033689;28;20061;-68
2022/09/18 13:50:30;;;;;;;14.07;2.97;;;;;;;;;;5032940;28;20095;-68
2022/09/18 13:52:58;;;;;;;13.63;1.60;;;;;;;;;;5033440;28;20047;-68
2022/09/18 13:55:27;;;;;;;11.50;2.17;;;;;;;;;;5034505;28;20123;-68
2022/09/18 13:58:30;;;;;;;27.17;3.40;;;13.40;99.90;;;;;;5033833;28;20049;-68
2022/09/18 14:01:00;;;;;;;;;;;13.60;99.90;;;;;;5033807;28;20375;-68
2022/09/18 14:03:26;;;;;;;10.52;2.08;;;;;;;;;;5033537;28;19940;-68
2022/09/18 14:05:52;;;;;;;22.40;2.00;;;;;;;;;;5033392;28;20103;-68
2022/09/18 14:08:18;;;;;;;15.52;2.10;;;;;;;;;;5016756;28;20041;-68
2022/09/18 14:10:44;;;;;;;10.55;2.50;;;;;;;;;;5031224;28;20050;-70
2022/09/18 14:13:30;;;;;;;13.68;2.67;;;13.50;99.90;;;;;;5032825;28;20473;-71
2022/09/18 14:16:07;;;;;;;16.88;1.80;;;13.40;99.70;;;;;;5032212;28;20045;-74